createdAt,value
2023-11-16T00:01:49.640Z,72.40
2023-11-16T00:04:16.236Z,72.30
2023-11-16T00:06:42.847Z,72.20
2023-11-16T00:09:09.408Z,72.30
2023-11-16T00:11:35.955Z,72.40
2023-11-16T00:14:02.517Z,72.30
2023-11-16T00:16:29.093Z,72.10
2023-11-16T00:18:55.697Z,72.10
2023-11-16T00:21:22.319Z,72.30
2023-11-16T00:23:48.873Z,72.40
2023-11-16T00:26:15.415Z,72.30
2023-11-16T00:28:41.949Z,72.30
2023-11-16T00:31:08.531Z,72.10
2023-11-16T00:33:35.073Z,72.20
2023-11-16T00:36:01.632Z,72.40
2023-11-16T00:38:28.166Z,72.10
2023-11-16T00:40:54.707Z,71.80
2023-11-16T00:43:21.244Z,71.70
2023-11-16T00:45:47.862Z,71.80
2023-11-16T00:48:14.519Z,72.10
2023-11-16T00:50:41.140Z,71.90
2023-11-16T00:53:07.684Z,72.00
2023-11-16T00:55:34.210Z,71.60
2023-11-16T00:58:00.768Z,72.10
2023-11-16T01:00:27.360Z,72.00
2023-11-16T01:02:53.966Z,71.80
2023-11-16T01:05:20.552Z,72.00
2023-11-16T01:07:47.121Z,71.90
2023-11-16T01:10:13.668Z,71.80
2023-11-16T01:12:40.334Z,71.90
2023-11-16T01:15:06.900Z,71.80
2023-11-16T01:17:33.713Z,71.80
2023-11-16T01:20:00.390Z,71.80
2023-11-16T01:22:26.937Z,71.80
2023-11-16T01:24:53.542Z,71.80
2023-11-16T01:27:20.136Z,71.80
2023-11-16T01:29:46.710Z,71.80
2023-11-16T01:32:13.267Z,72.00
2023-11-16T01:34:39.799Z,72.00
2023-11-16T01:37:06.336Z,71.90
2023-11-16T01:39:32.958Z,72.00
2023-11-16T01:41:59.552Z,71.70
2023-11-16T01:44:26.088Z,71.80
2023-11-16T01:46:52.627Z,71.80
2023-11-16T01:49:19.167Z,71.50
2023-11-16T01:51:45.731Z,71.70
2023-11-16T01:54:12.306Z,71.50
2023-11-16T01:56:38.864Z,71.50
2023-11-16T01:59:05.394Z,71.50
2023-11-16T02:01:32.022Z,71.40
2023-11-16T02:03:58.675Z,71.60
2023-11-16T02:06:25.319Z,71.40
2023-11-16T02:08:51.920Z,71.50
2023-11-16T02:11:19.717Z,71.50
2023-11-16T02:13:46.401Z,71.50
2023-11-16T02:16:12.988Z,71.40
2023-11-16T02:18:39.693Z,71.40
2023-11-16T02:21:06.373Z,71.50
2023-11-16T02:23:32.944Z,71.40
2023-11-16T02:25:59.531Z,71.20
2023-11-16T02:28:26.099Z,71.50
2023-11-16T02:30:52.628Z,71.40
2023-11-16T02:33:19.202Z,71.40
2023-11-16T02:35:45.751Z,71.20
2023-11-16T02:38:12.273Z,71.40
2023-11-16T02:40:39.927Z,71.20
2023-11-16T02:43:06.476Z,71.40
2023-11-16T02:45:33.079Z,71.30
2023-11-16T02:47:59.620Z,71.40
2023-11-16T02:50:26.165Z,71.40
2023-11-16T02:52:52.701Z,71.50
2023-11-16T02:55:19.238Z,71.50
2023-11-16T02:57:45.789Z,72.40
2023-11-16T03:00:12.395Z,71.60
2023-11-16T03:02:39.005Z,71.60
2023-11-16T03:05:05.544Z,71.40
2023-11-16T03:07:33.453Z,71.20
2023-11-16T03:10:00.419Z,71.40
2023-11-16T03:12:27.010Z,71.20
2023-11-16T03:14:53.561Z,71.20
2023-11-16T03:17:20.109Z,71.10
2023-11-16T03:19:46.636Z,71.20
2023-11-16T03:22:13.176Z,71.10
2023-11-16T03:24:39.765Z,71.40
2023-11-16T03:27:06.415Z,71.30
2023-11-16T03:29:33.012Z,71.40
2023-11-16T03:31:59.590Z,71.30
2023-11-16T03:34:26.156Z,71.40
2023-11-16T03:36:52.691Z,71.30
2023-11-16T03:39:19.271Z,71.40
2023-11-16T03:41:45.833Z,71.60
2023-11-16T03:44:12.397Z,71.40
2023-11-16T03:46:38.969Z,71.40
2023-11-16T03:49:05.564Z,71.20
2023-11-16T03:51:32.171Z,71.00
2023-11-16T03:53:58.782Z,71.10
2023-11-16T03:56:25.328Z,71.20
2023-11-16T03:58:51.902Z,70.80
2023-11-16T04:01:18.481Z,71.00
2023-11-16T04:03:45.136Z,71.10
2023-11-16T04:06:11.764Z,71.10
2023-11-16T04:08:38.324Z,71.10
2023-11-16T04:11:04.861Z,71.10
2023-11-16T04:13:31.408Z,71.20
2023-11-16T04:15:57.966Z,71.20
2023-11-16T04:18:24.594Z,71.40
2023-11-16T04:20:51.157Z,71.40
2023-11-16T04:23:17.697Z,71.20
2023-11-16T04:25:44.264Z,72.00
2023-11-16T04:28:10.825Z,71.40
2023-11-16T04:30:37.412Z,71.30
2023-11-16T04:33:04.038Z,72.00
2023-11-16T04:35:30.606Z,71.20
2023-11-16T04:37:57.157Z,71.30
2023-11-16T04:40:23.695Z,71.20
2023-11-16T04:42:50.254Z,71.40
2023-11-16T04:45:16.803Z,71.00
2023-11-16T04:47:43.437Z,71.20
2023-11-16T04:50:10.019Z,71.30
2023-11-16T04:52:36.550Z,71.20
2023-11-16T04:55:03.080Z,71.20
2023-11-16T04:57:29.722Z,71.30
2023-11-16T04:59:56.313Z,71.20
2023-11-16T05:02:22.869Z,71.20
2023-11-16T05:04:49.400Z,71.20
2023-11-16T05:07:15.936Z,71.20
2023-11-16T05:09:42.476Z,71.20
2023-11-16T05:12:09.072Z,71.20
2023-11-16T05:14:35.642Z,71.20
2023-11-16T05:17:02.181Z,71.10
2023-11-16T05:19:33.989Z,71.20
2023-11-16T05:22:00.532Z,71.40
2023-11-16T05:24:27.112Z,71.50
2023-11-16T05:26:53.657Z,71.40
2023-11-16T05:29:20.224Z,71.50
2023-11-16T05:31:46.781Z,71.40
2023-11-16T05:34:13.321Z,71.40
2023-11-16T05:36:39.926Z,71.20
2023-11-16T05:39:06.518Z,71.10
2023-11-16T05:41:33.051Z,71.40
2023-11-16T05:43:59.589Z,71.30
2023-11-16T05:46:26.173Z,71.20
2023-11-16T05:48:52.791Z,71.10
2023-11-16T05:51:19.387Z,71.10
2023-11-16T05:53:45.960Z,71.20
2023-11-16T05:56:12.515Z,71.20
2023-11-16T05:58:39.053Z,71.20
2023-11-16T06:01:05.646Z,72.10
2023-11-16T06:03:32.292Z,71.10
2023-11-16T06:05:58.869Z,71.20
2023-11-16T06:08:25.414Z,71.40
2023-11-16T06:10:51.953Z,71.60
2023-11-16T06:13:18.603Z,71.60
2023-11-16T06:15:45.228Z,71.40
2023-11-16T06:18:11.873Z,71.40
2023-11-16T06:20:38.495Z,71.50
2023-11-16T06:23:05.020Z,71.40
2023-11-16T06:25:31.593Z,71.50
2023-11-16T06:27:58.139Z,71.50
2023-11-16T06:30:24.743Z,71.40
2023-11-16T06:32:51.341Z,71.40
2023-11-16T06:35:17.901Z,71.40
2023-11-16T06:37:44.817Z,71.10
2023-11-16T06:40:11.685Z,71.10
2023-11-16T06:42:38.355Z,71.40
2023-11-16T06:45:04.920Z,71.20
2023-11-16T06:47:31.471Z,71.40
2023-11-16T06:49:58.042Z,71.20
2023-11-16T06:52:24.574Z,71.40
2023-11-16T06:54:51.143Z,71.40
2023-11-16T06:57:17.717Z,71.40
2023-11-16T06:59:44.271Z,71.50
2023-11-16T07:02:10.811Z,71.20
2023-11-16T07:04:37.496Z,71.50
2023-11-16T07:07:04.103Z,71.30
2023-11-16T07:09:30.737Z,71.40
2023-11-16T07:11:57.318Z,71.50
2023-11-16T07:14:23.864Z,71.30
2023-11-16T07:16:50.436Z,71.30
2023-11-16T07:19:17.019Z,71.20
2023-11-16T07:21:43.647Z,71.40
2023-11-16T07:24:10.188Z,71.40
2023-11-16T07:26:36.732Z,71.50
2023-11-16T07:29:03.286Z,71.40
2023-11-16T07:31:29.910Z,71.40
2023-11-16T07:33:56.534Z,71.40
2023-11-16T07:36:23.126Z,71.60
2023-11-16T07:38:49.677Z,71.20
2023-11-16T07:41:16.239Z,71.20
2023-11-16T07:43:42.765Z,71.40
2023-11-16T07:46:09.323Z,71.40
2023-11-16T07:48:35.923Z,71.30
2023-11-16T07:51:02.501Z,71.40
2023-11-16T07:53:29.031Z,71.40
2023-11-16T07:55:55.578Z,71.10
2023-11-16T07:58:22.112Z,71.20
2023-11-16T08:00:48.725Z,71.10
2023-11-16T08:03:15.443Z,71.20
2023-11-16T08:05:42.123Z,71.10
2023-11-16T08:08:08.659Z,71.10
2023-11-16T08:10:35.208Z,71.10
2023-11-16T08:13:01.752Z,71.10
2023-11-16T08:15:29.237Z,71.00
2023-11-16T08:17:55.804Z,71.20
2023-11-16T08:20:22.439Z,71.30
2023-11-16T08:22:48.997Z,71.30
2023-11-16T08:25:15.675Z,71.30
2023-11-16T08:27:42.335Z,71.20
2023-11-16T08:30:08.866Z,71.20
2023-11-16T08:32:35.421Z,71.90
2023-11-16T08:35:01.965Z,71.20
2023-11-16T08:37:29.017Z,71.20
2023-11-16T08:39:56.266Z,71.30
2023-11-16T08:42:22.987Z,71.20
2023-11-16T08:44:49.596Z,71.10
2023-11-16T08:47:16.247Z,71.20
2023-11-16T08:49:42.792Z,71.10
2023-11-16T08:52:09.338Z,71.00
2023-11-16T08:54:35.933Z,71.20
2023-11-16T08:57:02.502Z,71.20
2023-11-16T08:59:29.133Z,71.30
2023-11-16T09:01:55.703Z,71.20
2023-11-16T09:04:22.729Z,71.10
2023-11-16T09:06:49.388Z,71.20
2023-11-16T09:09:16.018Z,71.20
2023-11-16T09:11:42.635Z,71.00
2023-11-16T09:14:09.199Z,71.00
2023-11-16T09:16:35.800Z,70.90
2023-11-16T09:19:02.501Z,71.10
2023-11-16T09:21:29.190Z,71.20
2023-11-16T09:23:56.123Z,71.20
2023-11-16T09:26:22.762Z,71.20
2023-11-16T09:28:57.976Z,71.10
2023-11-16T09:31:28.054Z,71.30
2023-11-16T09:33:56.314Z,71.40
2023-11-16T09:36:24.260Z,71.20
2023-11-16T09:38:50.822Z,71.20
2023-11-16T09:41:17.377Z,71.20
2023-11-16T09:43:43.913Z,71.40
2023-11-16T09:46:10.604Z,71.30
2023-11-16T09:48:37.232Z,71.30
2023-11-16T09:51:03.815Z,71.50
2023-11-16T09:53:30.347Z,71.40
2023-11-16T09:55:56.907Z,71.30
2023-11-16T09:58:23.497Z,71.30
2023-11-16T10:00:50.077Z,71.20
2023-11-16T10:03:16.783Z,71.10
2023-11-16T10:05:43.430Z,71.10
2023-11-16T10:08:10.414Z,71.20
2023-11-16T10:10:37.054Z,71.20
2023-11-16T10:13:03.595Z,71.00
2023-11-16T10:15:30.164Z,71.00
2023-11-16T10:17:56.712Z,71.00
2023-11-16T10:20:23.246Z,71.10
2023-11-16T10:22:49.823Z,71.00
2023-11-16T10:25:16.380Z,71.20
2023-11-16T10:27:42.932Z,71.30
2023-11-16T10:30:09.497Z,71.00
2023-11-16T10:32:36.051Z,71.00
2023-11-16T10:35:02.593Z,71.00
2023-11-16T10:37:29.167Z,71.00
2023-11-16T10:39:55.765Z,71.10
2023-11-16T10:42:22.384Z,71.10
2023-11-16T10:44:48.943Z,71.30
2023-11-16T10:47:15.557Z,71.20
2023-11-16T10:49:42.169Z,71.00
2023-11-16T10:52:08.726Z,72.10
2023-11-16T10:54:35.282Z,71.30
2023-11-16T10:57:01.839Z,71.30
2023-11-16T10:59:28.884Z,71.30
2023-11-16T11:01:55.649Z,71.30
2023-11-16T11:04:22.277Z,71.30
2023-11-16T11:06:48.975Z,71.50
2023-11-16T11:09:15.602Z,71.30
2023-11-16T11:11:42.137Z,71.30
2023-11-16T11:14:08.686Z,71.20
2023-11-16T11:16:35.248Z,71.10
2023-11-16T11:19:01.850Z,71.30
2023-11-16T11:21:28.664Z,71.20
2023-11-16T11:23:55.349Z,71.20
2023-11-16T11:26:21.881Z,71.20
2023-11-16T11:28:48.412Z,71.30
2023-11-16T11:31:15.092Z,71.20
2023-11-16T11:33:41.777Z,71.30
2023-11-16T11:36:08.378Z,71.20
2023-11-16T11:38:34.904Z,71.10
2023-11-16T11:41:01.435Z,71.20
2023-11-16T11:43:28.012Z,71.20
2023-11-16T11:45:54.641Z,71.20
2023-11-16T11:48:21.227Z,71.10
2023-11-16T11:50:47.798Z,71.30
2023-11-16T11:53:14.323Z,71.30
2023-11-16T11:55:40.859Z,71.20
2023-11-16T11:58:07.455Z,71.30
2023-11-16T12:00:34.073Z,71.40
2023-11-16T12:03:00.889Z,71.40
2023-11-16T12:05:27.658Z,71.30
2023-11-16T12:07:54.279Z,71.20
2023-11-16T12:10:20.826Z,71.30
2023-11-16T12:12:47.436Z,71.70
2023-11-16T12:15:14.023Z,71.40
2023-11-16T12:17:40.591Z,71.30
2023-11-16T12:20:07.189Z,71.30
2023-11-16T12:22:33.746Z,71.30
2023-11-16T12:25:00.377Z,71.30
2023-11-16T12:27:27.030Z,71.60
2023-11-16T12:29:53.601Z,71.50
2023-11-16T12:32:20.170Z,71.30
2023-11-16T12:34:46.705Z,71.40
2023-11-16T12:37:13.237Z,71.30
2023-11-16T12:39:39.803Z,71.20
2023-11-16T12:42:06.348Z,71.20
2023-11-16T12:44:32.904Z,71.40
2023-11-16T12:46:59.549Z,72.20
2023-11-16T12:49:26.112Z,71.40
2023-11-16T12:51:52.669Z,71.40
2023-11-16T12:54:19.255Z,71.30
2023-11-16T12:56:45.788Z,71.50
2023-11-16T12:59:14.010Z,71.30
2023-11-16T13:01:40.913Z,71.20
2023-11-16T13:04:07.627Z,71.30
2023-11-16T13:06:34.269Z,71.20
2023-11-16T13:09:00.828Z,71.20
2023-11-16T13:11:27.356Z,71.40
2023-11-16T13:13:53.904Z,71.40
2023-11-16T13:16:20.548Z,71.30
2023-11-16T13:18:47.170Z,71.60
2023-11-16T13:21:13.734Z,71.60
2023-11-16T13:23:40.278Z,71.60
2023-11-16T13:26:06.823Z,71.40
2023-11-16T13:28:33.402Z,71.60
2023-11-16T13:31:00.040Z,71.40
2023-11-16T13:33:26.634Z,71.60
2023-11-16T13:35:53.190Z,71.40
2023-11-16T13:38:19.722Z,71.30
2023-11-16T13:40:46.377Z,71.70
2023-11-16T13:43:12.958Z,71.30
2023-11-16T13:45:39.580Z,71.30
2023-11-16T13:48:06.169Z,71.30
2023-11-16T13:50:32.729Z,71.40
2023-11-16T13:52:59.276Z,71.40
2023-11-16T13:55:25.815Z,71.20
2023-11-16T13:57:52.394Z,71.50
2023-11-16T14:00:18.974Z,71.30
2023-11-16T14:02:45.578Z,71.30
2023-11-16T14:05:14.251Z,71.40
2023-11-16T14:07:41.432Z,71.50
2023-11-16T14:10:16.526Z,71.40
2023-11-16T14:12:49.890Z,71.40
2023-11-16T14:15:16.450Z,71.40
2023-11-16T14:17:43.149Z,71.40
2023-11-16T14:20:09.749Z,71.40
2023-11-16T14:22:36.285Z,71.70
2023-11-16T14:25:02.892Z,71.60
2023-11-16T14:27:29.479Z,71.40
2023-11-16T14:29:56.031Z,71.50
2023-11-16T14:32:22.569Z,71.30
2023-11-16T14:34:49.138Z,71.20
2023-11-16T14:37:15.688Z,71.40
2023-11-16T14:39:42.264Z,71.30
2023-11-16T14:42:08.822Z,71.20
2023-11-16T14:44:35.384Z,71.50
2023-11-16T14:47:08.338Z,71.40
2023-11-16T14:49:36.913Z,71.50
2023-11-16T14:52:03.513Z,71.50
2023-11-16T14:54:30.126Z,71.60
2023-11-16T14:56:58.435Z,71.60
2023-11-16T14:59:24.999Z,71.50
2023-11-16T15:01:51.566Z,71.50
2023-11-16T15:04:18.293Z,71.40
2023-11-16T15:06:44.967Z,71.30
2023-11-16T15:09:13.238Z,71.40
2023-11-16T15:11:40.428Z,71.40
2023-11-16T15:14:06.962Z,71.40
2023-11-16T15:16:33.603Z,71.30
2023-11-16T15:19:00.258Z,71.30
2023-11-16T15:21:26.815Z,71.40
2023-11-16T15:23:53.353Z,71.60
2023-11-16T15:26:22.670Z,71.50
2023-11-16T15:28:49.345Z,71.40
2023-11-16T15:31:16.000Z,71.30
2023-11-16T15:33:42.696Z,71.40
2023-11-16T15:36:09.329Z,71.60
2023-11-16T15:38:36.370Z,71.50
2023-11-16T15:41:03.027Z,71.60
2023-11-16T15:43:29.585Z,71.40
2023-11-16T15:45:57.938Z,71.60
2023-11-16T15:48:26.185Z,71.30
2023-11-16T15:50:52.787Z,71.40
2023-11-16T15:53:19.310Z,71.30
2023-11-16T15:55:45.879Z,71.40
2023-11-16T15:58:12.441Z,71.40
2023-11-16T16:00:39.150Z,71.50
2023-11-16T16:03:07.936Z,71.40
2023-11-16T16:05:35.114Z,71.40
2023-11-16T16:08:01.661Z,71.50
2023-11-16T16:10:28.191Z,71.60
2023-11-16T16:12:54.721Z,71.40
2023-11-16T16:15:21.284Z,71.40
2023-11-16T16:17:47.853Z,71.60
2023-11-16T16:20:14.479Z,71.40
2023-11-16T16:22:41.041Z,71.30
2023-11-16T16:25:07.648Z,71.50
2023-11-16T16:27:34.264Z,71.40
2023-11-16T16:30:00.837Z,71.50
2023-11-16T16:32:27.384Z,71.40
2023-11-16T16:34:53.954Z,71.40
2023-11-16T16:37:20.502Z,71.50
2023-11-16T16:39:47.093Z,72.10
2023-11-16T16:42:13.638Z,71.40
2023-11-16T16:44:40.172Z,71.40
2023-11-16T16:47:06.767Z,71.40
2023-11-16T16:49:33.411Z,71.30
2023-11-16T16:52:00.000Z,71.40
2023-11-16T16:54:26.592Z,71.40
2023-11-16T16:56:53.198Z,71.40
2023-11-16T16:59:19.750Z,71.40
2023-11-16T17:01:46.408Z,71.40
2023-11-16T17:04:13.102Z,71.40
2023-11-16T17:06:39.786Z,71.40
2023-11-16T17:09:06.345Z,71.40
2023-11-16T17:11:32.964Z,71.20
2023-11-16T17:13:59.570Z,71.30
2023-11-16T17:16:26.157Z,71.30
2023-11-16T17:18:52.760Z,71.30
2023-11-16T17:21:19.334Z,71.40
2023-11-16T17:23:45.868Z,71.30
2023-11-16T17:26:12.412Z,71.40
2023-11-16T17:28:38.982Z,71.40
2023-11-16T17:31:05.670Z,71.30
2023-11-16T17:33:32.298Z,71.40
2023-11-16T17:35:58.873Z,71.30
2023-11-16T17:38:25.423Z,71.40
2023-11-16T17:40:51.951Z,71.30
2023-11-16T17:43:18.487Z,71.20
2023-11-16T17:45:45.094Z,71.20
2023-11-16T17:48:11.706Z,71.30
2023-11-16T17:50:38.254Z,71.30
2023-11-16T17:53:04.786Z,71.40
2023-11-16T17:55:31.308Z,71.30
2023-11-16T17:57:57.992Z,71.20
2023-11-16T18:00:24.554Z,71.20
2023-11-16T18:02:51.308Z,71.30
2023-11-16T18:05:17.854Z,71.30
2023-11-16T18:07:44.391Z,71.20
2023-11-16T18:10:11.114Z,71.40
2023-11-16T18:12:37.791Z,71.30
2023-11-16T18:15:04.354Z,71.30
2023-11-16T18:17:30.932Z,71.20
2023-11-16T18:19:57.484Z,71.20
2023-11-16T18:22:24.049Z,71.10
2023-11-16T18:24:50.636Z,71.20
2023-11-16T18:27:17.229Z,71.30
2023-11-16T18:29:43.796Z,71.10
2023-11-16T18:32:10.385Z,71.20
2023-11-16T18:34:36.975Z,71.20
2023-11-16T18:37:03.625Z,71.30
2023-11-16T18:39:31.985Z,71.30
2023-11-16T18:41:59.745Z,71.20
2023-11-16T18:44:26.280Z,71.20
2023-11-16T18:46:52.898Z,71.10
2023-11-16T18:49:19.478Z,71.10
2023-11-16T18:51:46.064Z,71.30
2023-11-16T18:54:12.617Z,71.30
2023-11-16T18:56:39.179Z,71.30
2023-11-16T18:59:05.717Z,71.30
2023-11-16T19:01:32.316Z,71.20
2023-11-16T19:03:58.966Z,71.00
2023-11-16T19:06:25.581Z,71.10
2023-11-16T19:08:52.111Z,71.30
2023-11-16T19:11:18.664Z,71.10
2023-11-16T19:13:45.197Z,71.10
2023-11-16T19:16:11.846Z,71.00
2023-11-16T19:18:38.533Z,71.00
2023-11-16T19:21:05.153Z,71.00
2023-11-16T19:23:31.696Z,71.00
2023-11-16T19:25:58.244Z,71.00
2023-11-16T19:28:24.789Z,70.90
2023-11-16T19:30:51.361Z,71.20
2023-11-16T19:33:17.957Z,71.10
2023-11-16T19:35:44.500Z,70.90
2023-11-16T19:38:13.805Z,70.90
2023-11-16T19:40:42.051Z,71.00
2023-11-16T19:43:08.968Z,71.10
2023-11-16T19:45:35.623Z,71.10
2023-11-16T19:48:02.212Z,70.90
2023-11-16T19:50:28.830Z,71.00
2023-11-16T19:52:55.358Z,70.90
2023-11-16T19:55:21.987Z,70.90
2023-11-16T19:57:48.605Z,70.90
2023-11-16T20:00:15.142Z,70.90
2023-11-16T20:02:41.827Z,70.90
2023-11-16T20:05:08.500Z,70.90
2023-11-16T20:07:40.788Z,70.70
2023-11-16T20:10:07.609Z,70.80
2023-11-16T20:12:34.331Z,70.70
2023-11-16T20:15:00.900Z,71.00
2023-11-16T20:17:27.456Z,71.00
2023-11-16T20:19:54.027Z,71.00
2023-11-16T20:22:20.618Z,70.70
2023-11-16T20:24:47.201Z,70.80
2023-11-16T20:27:13.786Z,70.70
2023-11-16T20:29:40.328Z,70.70
2023-11-16T20:32:06.878Z,70.70
2023-11-16T20:34:33.490Z,70.40
2023-11-16T20:37:00.164Z,70.70
2023-11-16T20:39:26.729Z,70.50
2023-11-16T20:41:53.284Z,70.50
2023-11-16T20:44:19.831Z,71.30
2023-11-16T20:46:46.393Z,70.30
2023-11-16T20:49:12.973Z,70.40
2023-11-16T20:51:39.542Z,70.40
2023-11-16T20:54:06.105Z,70.50
2023-11-16T20:56:32.661Z,70.50
2023-11-16T20:58:59.208Z,70.50
2023-11-16T21:01:25.732Z,70.70
2023-11-16T21:03:52.442Z,70.50
2023-11-16T21:06:19.019Z,70.40
2023-11-16T21:08:45.551Z,70.30
2023-11-16T21:11:12.092Z,70.40
2023-11-16T21:13:38.627Z,70.50
2023-11-16T21:16:05.225Z,70.30
2023-11-16T21:18:31.803Z,70.20
2023-11-16T21:20:58.328Z,70.20
2023-11-16T21:23:24.882Z,70.10
2023-11-16T21:25:51.426Z,70.10
2023-11-16T21:28:18.043Z,70.20
2023-11-16T21:30:44.655Z,69.90
2023-11-16T21:33:11.246Z,70.10
2023-11-16T21:35:37.796Z,70.00
2023-11-16T21:38:04.350Z,70.00
2023-11-16T21:40:30.955Z,70.00
2023-11-16T21:42:57.561Z,69.90
2023-11-16T21:45:24.108Z,69.90
2023-11-16T21:47:50.712Z,70.00
2023-11-16T21:50:17.301Z,70.10
2023-11-16T21:52:44.017Z,70.00
2023-11-16T21:55:10.587Z,69.90
2023-11-16T21:57:37.198Z,69.90
2023-11-16T22:00:03.784Z,70.80
2023-11-16T22:02:30.394Z,69.90
2023-11-16T22:04:56.958Z,69.90
2023-11-16T22:07:23.504Z,69.90
2023-11-16T22:09:50.085Z,69.80
2023-11-16T22:12:16.682Z,69.60
2023-11-16T22:14:43.233Z,69.60
2023-11-16T22:17:09.843Z,69.50
2023-11-16T22:19:36.471Z,69.50
2023-11-16T22:22:03.054Z,69.50
2023-11-16T22:24:29.640Z,69.50
2023-11-16T22:26:56.193Z,69.50
2023-11-16T22:29:22.773Z,69.50
2023-11-16T22:31:49.331Z,69.70
2023-11-16T22:34:15.921Z,69.50
2023-11-16T22:36:42.512Z,69.50
2023-11-16T22:39:09.090Z,69.40
2023-11-16T22:41:35.615Z,69.60
2023-11-16T22:44:02.235Z,69.60
2023-11-16T22:46:28.825Z,69.40
2023-11-16T22:48:55.454Z,69.40
2023-11-16T22:51:21.994Z,69.40
2023-11-16T22:53:48.555Z,69.30
2023-11-16T22:56:15.084Z,69.20
2023-11-16T22:58:41.611Z,69.20
2023-11-16T23:01:08.181Z,69.40
2023-11-16T23:03:34.918Z,69.10
2023-11-16T23:06:01.572Z,69.00
2023-11-16T23:08:28.237Z,69.00
2023-11-16T23:10:54.830Z,69.00
2023-11-16T23:13:21.622Z,69.10
2023-11-16T23:15:48.361Z,69.10
2023-11-16T23:18:15.175Z,69.00
2023-11-16T23:20:41.843Z,68.90
2023-11-16T23:23:08.382Z,69.00
2023-11-16T23:25:34.914Z,69.00
2023-11-16T23:28:01.516Z,68.90
2023-11-16T23:30:28.154Z,69.10
2023-11-16T23:32:54.743Z,68.90
2023-11-16T23:35:21.366Z,68.90
2023-11-16T23:37:47.915Z,68.90
2023-11-16T23:40:14.698Z,68.80
2023-11-16T23:42:41.310Z,68.80
2023-11-16T23:45:07.895Z,68.70
2023-11-16T23:47:34.440Z,68.70
2023-11-16T23:50:01.009Z,69.00
2023-11-16T23:52:27.565Z,69.10
2023-11-16T23:54:54.186Z,69.00
2023-11-16T23:57:20.790Z,68.70
2023-11-16T23:59:47.328Z,68.80
